sensor_id;sensor_type;location;lat;lon;timestamp;pressure;altitude;pressure_sealevel;temperature;humidity
60099;BME280;62818;49.394;8.686;2023-04-19T00:00:35;101068.53;;;10.79;90.96
60099;BME280;62818;49.394;8.686;2023-04-19T00:01:36;101069.81;;;10.75;90.29
60099;BME280;62818;49.394;8.686;2023-04-19T00:02:36;101068.28;;;10.65;90.84
60099;BME280;62818;49.394;8.686;2023-04-19T00:03:37;101069.97;;;10.74;91.16
60099;BME280;62818;49.394;8.686;2023-04-19T00:04:38;101060.00;;;10.68;91.05
60099;BME280;62818;49.394;8.686;2023-04-19T00:05:38;101066.09;;;10.60;90.85
60099;BME280;62818;49.394;8.686;2023-04-19T00:06:40;101064.38;;;10.77;90.95
60099;BME280;62818;49.394;8.686;2023-04-19T00:07:42;101055.38;;;10.70;90.89
60099;BME280;62818;49.394;8.686;2023-04-19T00:08:42;101066.16;;;10.68;90.74
60099;BME280;62818;49.394;8.686;2023-04-19T00:09:43;101056.03;;;10.72;90.66
60099;BME280;62818;49.394;8.686;2023-04-19T00:10:44;101051.63;;;10.88;90.26
60099;BME280;62818;49.394;8.686;2023-04-19T00:11:44;101062.38;;;10.79;90.10
60099;BME280;62818;49.394;8.686;2023-04-19T00:12:45;101052.16;;;11.00;90.22
60099;BME280;62818;49.394;8.686;2023-04-19T00:13:45;101058.78;;;10.88;89.01
60099;BME280;62818;49.394;8.686;2023-04-19T00:14:46;101055.56;;;10.76;89.93
60099;BME280;62818;49.394;8.686;2023-04-19T00:15:46;101048.94;;;10.80;90.13
60099;BME280;62818;49.394;8.686;2023-04-19T00:16:47;101046.13;;;10.82;90.02
60099;BME280;62818;49.394;8.686;2023-04-19T00:17:47;101050.16;;;10.94;89.35
60099;BME280;62818;49.394;8.686;2023-04-19T00:18:48;101051.00;;;10.94;89.09
60099;BME280;62818;49.394;8.686;2023-04-19T00:19:48;101042.56;;;10.99;90.20
60099;BME280;62818;49.394;8.686;2023-04-19T00:20:49;101046.19;;;10.90;90.26
60099;BME280;62818;49.394;8.686;2023-04-19T00:21:49;101047.31;;;10.79;90.33
60099;BME280;62818;49.394;8.686;2023-04-19T00:22:49;101051.59;;;10.72;90.73
60099;BME280;62818;49.394;8.686;2023-04-19T00:23:50;101046.19;;;10.56;91.00
60099;BME280;62818;49.394;8.686;2023-04-19T00:24:51;101048.81;;;10.90;90.21
60099;BME280;62818;49.394;8.686;2023-04-19T00:25:52;101049.84;;;10.97;89.60
60099;BME280;62818;49.394;8.686;2023-04-19T00:26:53;101052.13;;;10.84;89.44
60099;BME280;62818;49.394;8.686;2023-04-19T00:27:54;101046.78;;;10.76;90.43
60099;BME280;62818;49.394;8.686;2023-04-19T00:28:54;101046.09;;;10.66;90.79
60099;BME280;62818;49.394;8.686;2023-04-19T00:29:55;101048.75;;;10.74;90.91
60099;BME280;62818;49.394;8.686;2023-04-19T00:30:56;101045.88;;;11.01;90.25
60099;BME280;62818;49.394;8.686;2023-04-19T00:31:57;101052.28;;;10.82;90.60
60099;BME280;62818;49.394;8.686;2023-04-19T00:32:57;101051.13;;;10.93;90.93
60099;BME280;62818;49.394;8.686;2023-04-19T00:33:58;101044.13;;;10.76;90.51
60099;BME280;62818;49.394;8.686;2023-04-19T00:34:58;101050.91;;;10.70;90.77
60099;BME280;62818;49.394;8.686;2023-04-19T00:35:59;101049.38;;;11.09;90.21
60099;BME280;62818;49.394;8.686;2023-04-19T00:36:59;101051.13;;;10.93;90.25
60099;BME280;62818;49.394;8.686;2023-04-19T00:38:00;101051.13;;;10.85;90.39
60099;BME280;62818;49.394;8.686;2023-04-19T00:39:00;101047.13;;;10.73;91.42
60099;BME280;62818;49.394;8.686;2023-04-19T00:40:01;101046.41;;;10.63;92.42
60099;BME280;62818;49.394;8.686;2023-04-19T00:41:01;101045.56;;;10.62;91.58
60099;BME280;62818;49.394;8.686;2023-04-19T00:42:02;101050.47;;;10.91;91.02
60099;BME280;62818;49.394;8.686;2023-04-19T00:43:02;101045.13;;;10.75;90.77
60099;BME280;62818;49.394;8.686;2023-04-19T00:44:03;101044.28;;;10.74;91.37
60099;BME280;62818;49.394;8.686;2023-04-19T00:45:04;101046.97;;;10.82;90.66
60099;BME280;62818;49.394;8.686;2023-04-19T00:46:05;101052.28;;;10.82;90.42
60099;BME280;62818;49.394;8.686;2023-04-19T00:47:05;101047.31;;;10.79;90.61
60099;BME280;62818;49.394;8.686;2023-04-19T00:48:06;101047.63;;;10.84;90.24
60099;BME280;62818;49.394;8.686;2023-04-19T00:49:08;101039.28;;;10.63;90.46
60099;BME280;62818;49.394;8.686;2023-04-19T00:50:09;101045.75;;;10.69;91.40
60099;BME280;62818;49.394;8.686;2023-04-19T00:51:10;101045.13;;;10.75;90.72
60099;BME280;62818;49.394;8.686;2023-04-19T00:52:11;101038.03;;;10.91;90.49
60099;BME280;62818;49.394;8.686;2023-04-19T00:53:12;101039.84;;;10.75;90.03
60099;BME280;62818;49.394;8.686;2023-04-19T00:54:13;101043.84;;;10.95;90.34
60099;BME280;62818;49.394;8.686;2023-04-19T00:55:14;101050.81;;;10.96;89.53
60099;BME280;62818;49.394;8.686;2023-04-19T00:56:15;101041.84;;;10.89;89.65
60099;BME280;62818;49.394;8.686;2023-04-19T00:57:17;101040.31;;;10.70;90.37
60099;BME280;62818;49.394;8.686;2023-04-19T00:58:17;101044.09;;;10.68;90.83
60099;BME280;62818;49.394;8.686;2023-04-19T00:59:18;101043.84;;;10.95;90.07
60099;BME280;62818;49.394;8.686;2023-04-19T01:00:19;101037.88;;;10.93;90.19
60099;BME280;62818;49.394;8.686;2023-04-19T01:01:19;101037.50;;;10.80;90.21
60099;BME280;62818;49.394;8.686;2023-04-19T01:02:20;101044.69;;;10.54;91.01
60099;BME280;62818;49.394;8.686;2023-04-19T01:03:21;101041.84;;;10.81;90.33
60099;BME280;62818;49.394;8.686;2023-04-19T01:04:22;101037.03;;;10.84;89.80
60099;BME280;62818;49.394;8.686;2023-04-19T01:05:23;101033.34;;;10.69;90.26
60099;BME280;62818;49.394;8.686;2023-04-19T01:06:23;101038.16;;;10.74;91.02
60099;BME280;62818;49.394;8.686;2023-04-19T01:07:27;101040.78;;;10.66;91.04
60099;BME280;62818;49.394;8.686;2023-04-19T01:08:27;101031.13;;;10.57;91.07
60099;BME280;62818;49.394;8.686;2023-04-19T01:09:28;101037.28;;;10.57;91.51
60099;BME280;62818;49.394;8.686;2023-04-19T01:10:29;101030.66;;;10.61;91.20
60099;BME280;62818;49.394;8.686;2023-04-19T01:11:29;101024.53;;;10.61;91.33
60099;BME280;62818;49.394;8.686;2023-04-19T01:12:30;101034.94;;;10.54;91.52
60099;BME280;62818;49.394;8.686;2023-04-19T01:13:30;101025.16;;;10.55;91.65
60099;BME280;62818;49.394;8.686;2023-04-19T01:14:30;101034.81;;;10.64;91.22
60099;BME280;62818;49.394;8.686;2023-04-19T01:15:31;101023.34;;;10.55;91.33
60099;BME280;62818;49.394;8.686;2023-04-19T01:16:31;101025.84;;;10.65;90.71
60099;BME280;62818;49.394;8.686;2023-04-19T01:17:33;101026.88;;;10.64;91.05
60099;BME280;62818;49.394;8.686;2023-04-19T01:18:33;101021.88;;;10.69;90.96
60099;BME280;62818;49.394;8.686;2023-04-19T01:19:36;101025.38;;;10.69;91.52
60099;BME280;62818;49.394;8.686;2023-04-19T01:20:37;101013.72;;;10.46;91.70
60099;BME280;62818;49.394;8.686;2023-04-19T01:21:38;101022.84;;;10.60;92.15
60099;BME280;62818;49.394;8.686;2023-04-19T01:22:39;101028.19;;;10.68;91.57
60099;BME280;62818;49.394;8.686;2023-04-19T01:23:39;101022.72;;;10.61;91.27
60099;BME280;62818;49.394;8.686;2023-04-19T01:24:40;101018.84;;;10.56;91.39
60099;BME280;62818;49.394;8.686;2023-04-19T01:25:40;101020.59;;;10.73;90.65
60099;BME280;62818;49.394;8.686;2023-04-19T01:26:41;101021.88;;;10.61;91.32
60099;BME280;62818;49.394;8.686;2023-04-19T01:27:41;101023.59;;;10.78;90.44
60099;BME280;62818;49.394;8.686;2023-04-19T01:28:43;101010.63;;;10.67;90.61
60099;BME280;62818;49.394;8.686;2023-04-19T01:29:43;101016.38;;;10.54;91.41
60099;BME280;62818;49.394;8.686;2023-04-19T01:30:44;101013.63;;;10.72;90.99
60099;BME280;62818;49.394;8.686;2023-04-19T01:31:44;101008.25;;;10.56;90.77
60099;BME280;62818;49.394;8.686;2023-04-19T01:32:50;100998.66;;;10.55;91.56
60099;BME280;62818;49.394;8.686;2023-04-19T01:33:50;101012.22;;;10.52;91.38
60099;BME280;62818;49.394;8.686;2023-04-19T01:34:51;101000.94;;;10.41;92.02
60099;BME280;62818;49.394;8.686;2023-04-19T01:35:52;101004.91;;;10.46;91.64
60099;BME280;62818;49.394;8.686;2023-04-19T01:36:52;101000.78;;;10.51;91.20
60099;BME280;62818;49.394;8.686;2023-04-19T01:37:53;101000.31;;;10.56;91.37
60099;BME280;62818;49.394;8.686;2023-04-19T01:38:56;100993.94;;;10.40;91.81
60099;BME280;62818;49.394;8.686;2023-04-19T01:39:56;100998.00;;;10.61;91.30
60099;BME280;62818;49.394;8.686;2023-04-19T01:40:57;100999.63;;;10.54;91.15
60099;BME280;62818;49.394;8.686;2023-04-19T01:41:57;100990.47;;;10.40;91.50
60099;BME280;62818;49.394;8.686;2023-04-19T01:42:58;100988.66;;;10.40;91.66
60099;BME280;62818;49.394;8.686;2023-04-19T01:43:58;100992.63;;;10.44;90.87
60099;BME280;62818;49.394;8.686;2023-04-19T01:45:00;100991.66;;;10.46;91.18
60099;BME280;62818;49.394;8.686;2023-04-19T01:46:00;100992.31;;;10.39;92.05
60099;BME280;62818;49.394;8.686;2023-04-19T01:47:01;100990.81;;;10.45;91.40
60099;BME280;62818;49.394;8.686;2023-04-19T01:48:02;100990.03;;;10.53;90.76
60099;BME280;62818;49.394;8.686;2023-04-19T01:49:03;100988.72;;;10.57;90.62
60099;BME280;62818;49.394;8.686;2023-04-19T01:50:04;100993.72;;;10.68;90.68
60099;BME280;62818;49.394;8.686;2023-04-19T01:51:05;100979.06;;;10.48;91.27
60099;BME280;62818;49.394;8.686;2023-04-19T01:52:06;100988.34;;;10.43;91.59
60099;BME280;62818;49.394;8.686;2023-04-19T01:53:06;100987.34;;;10.44;91.32
60099;BME280;62818;49.394;8.686;2023-04-19T01:54:07;100983.06;;;10.52;90.54
60099;BME280;62818;49.394;8.686;2023-04-19T01:55:07;100985.72;;;10.52;90.83
60099;BME280;62818;49.394;8.686;2023-04-19T01:56:08;100982.91;;;10.53;90.82
60099;BME280;62818;49.394;8.686;2023-04-19T01:57:08;100988.66;;;10.40;90.91
60099;BME280;62818;49.394;8.686;2023-04-19T01:58:09;100976.72;;;10.36;91.67
60099;BME280;62818;49.394;8.686;2023-04-19T01:59:09;100978.88;;;10.41;91.30
60099;BME280;62818;49.394;8.686;2023-04-19T02:00:10;100978.88;;;10.41;90.84
60099;BME280;62818;49.394;8.686;2023-04-19T02:01:11;100982.22;;;10.43;90.94
60099;BME280;62818;49.394;8.686;2023-04-19T02:02:12;100982.38;;;10.41;91.41
60099;BME280;62818;49.394;8.686;2023-04-19T02:03:12;100973.09;;;10.37;91.38
60099;BME280;62818;49.394;8.686;2023-04-19T02:04:13;100970.75;;;10.34;91.72
60099;BME280;62818;49.394;8.686;2023-04-19T02:05:13;100971.41;;;10.36;91.86
60099;BME280;62818;49.394;8.686;2023-04-19T02:06:14;100969.75;;;10.35;91.09
60099;BME280;62818;49.394;8.686;2023-04-19T02:07:14;100969.16;;;10.50;91.35
60099;BME280;62818;49.394;8.686;2023-04-19T02:08:15;100965.81;;;10.39;91.71
60099;BME280;62818;49.394;8.686;2023-04-19T02:09:15;100966.63;;;10.40;91.18
60099;BME280;62818;49.394;8.686;2023-04-19T02:10:16;100964.50;;;10.43;90.63
60099;BME280;62818;49.394;8.686;2023-04-19T02:11:16;100961.84;;;10.43;91.17
60099;BME280;62818;49.394;8.686;2023-04-19T02:12:17;100967.78;;;10.37;91.18
60099;BME280;62818;49.394;8.686;2023-04-19T02:13:17;100961.84;;;10.43;91.02
60099;BME280;62818;49.394;8.686;2023-04-19T02:14:18;100959.84;;;10.46;90.86
60099;BME280;62818;49.394;8.686;2023-04-19T02:15:18;100964.16;;;10.47;90.81
60099;BME280;62818;49.394;8.686;2023-04-19T02:16:18;100964.13;;;10.38;90.74
60099;BME280;62818;49.394;8.686;2023-04-19T02:17:19;100961.19;;;10.50;90.32
60099;BME280;62818;49.394;8.686;2023-04-19T02:18:19;100964.13;;;10.38;90.40
60099;BME280;62818;49.394;8.686;2023-04-19T02:19:20;100965.63;;;10.33;91.00
60099;BME280;62818;49.394;8.686;2023-04-19T02:20:20;100963.47;;;10.44;91.14
60099;BME280;62818;49.394;8.686;2023-04-19T02:21:23;100961.31;;;10.40;91.01
60099;BME280;62818;49.394;8.686;2023-04-19T02:22:23;100964.13;;;10.38;90.57
60099;BME280;62818;49.394;8.686;2023-04-19T02:23:24;100967.81;;;10.46;90.78
60099;BME280;62818;49.394;8.686;2023-04-19T02:24:24;100961.31;;;10.40;90.61
60099;BME280;62818;49.394;8.686;2023-04-19T02:25:25;100965.16;;;10.46;90.63
60099;BME280;62818;49.394;8.686;2023-04-19T02:26:25;100969.75;;;10.35;91.58
60099;BME280;62818;49.394;8.686;2023-04-19T02:27:26;100967.25;;;10.34;91.48
60099;BME280;62818;49.394;8.686;2023-04-19T02:28:27;100970.94;;;10.41;90.69
60099;BME280;62818;49.394;8.686;2023-04-19T02:29:28;100959.84;;;10.46;90.60
60099;BME280;62818;49.394;8.686;2023-04-19T02:30:28;100963.28;;;10.38;90.52
60099;BME280;62818;49.394;8.686;2023-04-19T02:31:29;100963.28;;;10.38;90.62
60099;BME280;62818;49.394;8.686;2023-04-19T02:32:29;100957.19;;;10.37;90.34
60099;BME280;62818;49.394;8.686;2023-04-19T02:33:31;100958.84;;;10.38;90.70
60099;BME280;62818;49.394;8.686;2023-04-19T02:34:32;100950.22;;;10.36;91.43
60099;BME280;62818;49.394;8.686;2023-04-19T02:35:33;100954.69;;;10.36;90.97
60099;BME280;62818;49.394;8.686;2023-04-19T02:36:34;100957.50;;;10.34;90.51
60099;BME280;62818;49.394;8.686;2023-04-19T02:37:35;100960.66;;;10.38;90.75
60099;BME280;62818;49.394;8.686;2023-04-19T02:38:35;100954.19;;;10.32;90.93
60099;BME280;62818;49.394;8.686;2023-04-19T02:39:36;100948.03;;;10.32;91.26
60099;BME280;62818;49.394;8.686;2023-04-19T02:40:36;100952.69;;;10.38;90.66
60099;BME280;62818;49.394;8.686;2023-04-19T02:41:38;100949.56;;;10.42;90.85
60099;BME280;62818;49.394;8.686;2023-04-19T02:42:38;100949.91;;;10.39;90.76
60099;BME280;62818;49.394;8.686;2023-04-19T02:43:39;100952.19;;;10.34;91.33
60099;BME280;62818;49.394;8.686;2023-04-19T02:44:39;100945.88;;;10.27;91.21
60099;BME280;62818;49.394;8.686;2023-04-19T02:45:40;100947.88;;;10.33;91.13
60099;BME280;62818;49.394;8.686;2023-04-19T02:46:40;100953.06;;;10.43;91.16
60099;BME280;62818;49.394;8.686;2023-04-19T02:47:41;100956.19;;;10.38;90.81
60099;BME280;62818;49.394;8.686;2023-04-19T02:48:41;100949.91;;;10.39;90.19
60099;BME280;62818;49.394;8.686;2023-04-19T02:49:41;100948.34;;;10.29;90.85
60099;BME280;62818;49.394;8.686;2023-04-19T02:50:42;100947.19;;;10.23;91.01
60099;BME280;62818;49.394;8.686;2023-04-19T02:51:42;100955.97;;;10.24;91.42
60099;BME280;62818;49.394;8.686;2023-04-19T02:52:43;100943.19;;;10.19;91.74
60099;BME280;62818;49.394;8.686;2023-04-19T02:53:46;100958.09;;;10.20;91.47
60099;BME280;62818;49.394;8.686;2023-04-19T02:54:47;100948.50;;;10.19;91.86
60099;BME280;62818;49.394;8.686;2023-04-19T02:55:47;100947.50;;;10.20;91.82
60099;BME280;62818;49.394;8.686;2023-04-19T02:56:48;100942.72;;;10.24;91.60
60099;BME280;62818;49.394;8.686;2023-04-19T02:57:48;100947.84;;;10.17;91.49
60099;BME280;62818;49.394;8.686;2023-04-19T02:58:49;100941.88;;;10.15;91.76
60099;BME280;62818;49.394;8.686;2023-04-19T02:59:49;100944.66;;;10.14;91.92
60099;BME280;62818;49.394;8.686;2023-04-19T03:00:50;100939.34;;;10.14;92.04
60099;BME280;62818;49.394;8.686;2023-04-19T03:01:50;100944.84;;;10.20;91.74
60099;BME280;62818;49.394;8.686;2023-04-19T03:02:50;100946.00;;;10.18;91.33
60099;BME280;62818;49.394;8.686;2023-04-19T03:03:51;100949.28;;;10.12;91.97
60099;BME280;62818;49.394;8.686;2023-04-19T03:04:51;100945.50;;;10.14;91.74
60099;BME280;62818;49.394;8.686;2023-04-19T03:05:53;100939.69;;;10.11;91.94
60099;BME280;62818;49.394;8.686;2023-04-19T03:06:53;100940.50;;;10.11;92.36
60099;BME280;62818;49.394;8.686;2023-04-19T03:07:54;100943.50;;;10.16;92.18
60099;BME280;62818;49.394;8.686;2023-04-19T03:08:54;100938.81;;;10.10;91.72
60099;BME280;62818;49.394;8.686;2023-04-19T03:09:55;100942.44;;;10.09;91.88
60099;BME280;62818;49.394;8.686;2023-04-19T03:10:55;100937.84;;;10.11;92.34
60099;BME280;62818;49.394;8.686;2023-04-19T03:11:56;100931.28;;;10.15;92.08
60099;BME280;62818;49.394;8.686;2023-04-19T03:12:56;100940.34;;;10.13;92.34
60099;BME280;62818;49.394;8.686;2023-04-19T03:13:57;100938.16;;;10.08;92.80
60099;BME280;62818;49.394;8.686;2023-04-19T03:14:57;100932.19;;;10.06;92.61
60099;BME280;62818;49.394;8.686;2023-04-19T03:15:57;100928.53;;;10.07;92.69
60099;BME280;62818;49.394;8.686;2023-04-19T03:16:58;100927.25;;;10.11;92.74
60099;BME280;62818;49.394;8.686;2023-04-19T03:17:59;100929.38;;;10.08;92.96
60099;BME280;62818;49.394;8.686;2023-04-19T03:18:59;100937.78;;;10.03;93.08
60099;BME280;62818;49.394;8.686;2023-04-19T03:20:00;100927.38;;;10.02;92.96
60099;BME280;62818;49.394;8.686;2023-04-19T03:21:01;100924.91;;;10.08;92.57
60099;BME280;62818;49.394;8.686;2023-04-19T03:22:01;100932.19;;;10.06;92.93
60099;BME280;62818;49.394;8.686;2023-04-19T03:23:02;100935.81;;;10.05;93.27
60099;BME280;62818;49.394;8.686;2023-04-19T03:24:02;100932.91;;;10.16;92.84
60099;BME280;62818;49.394;8.686;2023-04-19T03:25:03;100931.56;;;10.12;92.95
60099;BME280;62818;49.394;8.686;2023-04-19T03:26:04;100937.47;;;10.06;92.79
60099;BME280;62818;49.394;8.686;2023-04-19T03:27:05;100929.91;;;10.11;92.95
60099;BME280;62818;49.394;8.686;2023-04-19T03:28:05;100926.88;;;10.06;92.96
60099;BME280;62818;49.394;8.686;2023-04-19T03:29:06;100932.69;;;10.10;92.71
60099;BME280;62818;49.394;8.686;2023-04-19T03:30:07;100935.19;;;10.11;92.96
60099;BME280;62818;49.394;8.686;2023-04-19T03:31:07;100931.84;;;10.09;92.87
60099;BME280;62818;49.394;8.686;2023-04-19T03:32:08;100929.53;;;10.06;92.66
60099;BME280;62818;49.394;8.686;2023-04-19T03:33:08;100924.59;;;10.11;92.22
60099;BME280;62818;49.394;8.686;2023-04-19T03:34:09;100917.50;;;10.12;92.37
60099;BME280;62818;49.394;8.686;2023-04-19T03:35:10;100924.91;;;10.08;92.14
60099;BME280;62818;49.394;8.686;2023-04-19T03:36:10;100920.44;;;10.09;92.53
60099;BME280;62818;49.394;8.686;2023-04-19T03:37:11;100919.91;;;10.05;92.65
60099;BME280;62818;49.394;8.686;2023-04-19T03:38:11;100920.91;;;10.04;92.66
60099;BME280;62818;49.394;8.686;2023-04-19T03:39:12;100909.84;;;10.09;92.27
60099;BME280;62818;49.394;8.686;2023-04-19T03:40:12;100898.13;;;10.11;91.95
60099;BME280;62818;49.394;8.686;2023-04-19T03:41:22;100911.66;;;10.08;92.17
60099;BME280;62818;49.394;8.686;2023-04-19T03:42:23;100910.16;;;10.06;92.48
60099;BME280;62818;49.394;8.686;2023-04-19T03:43:23;100907.03;;;10.10;92.49
60099;BME280;62818;49.394;8.686;2023-04-19T03:44:24;100911.81;;;10.07;92.42
60099;BME280;62818;49.394;8.686;2023-04-19T03:45:24;100907.72;;;10.12;92.46
60099;BME280;62818;49.394;8.686;2023-04-19T03:46:26;100904.03;;;10.05;92.37
60099;BME280;62818;49.394;8.686;2023-04-19T03:47:30;100895.81;;;10.16;92.58
60099;BME280;62818;49.394;8.686;2023-04-19T03:48:31;100899.13;;;10.18;92.29
60099;BME280;62818;49.394;8.686;2023-04-19T03:49:32;100905.09;;;10.12;92.05
60099;BME280;62818;49.394;8.686;2023-04-19T03:50:32;100898.47;;;10.16;91.88
60099;BME280;62818;49.394;8.686;2023-04-19T03:51:33;100902.78;;;10.17;91.70
60099;BME280;62818;49.394;8.686;2023-04-19T03:52:33;100897.50;;;10.17;91.58
60099;BME280;62818;49.394;8.686;2023-04-19T03:53:34;100898.84;;;10.21;91.32
60099;BME280;62818;49.394;8.686;2023-04-19T03:54:36;100886.25;;;10.23;90.63
60099;BME280;62818;49.394;8.686;2023-04-19T03:55:36;100897.16;;;10.20;91.01
60099;BME280;62818;49.394;8.686;2023-04-19T03:56:37;100898.84;;;10.21;90.76
60099;BME280;62818;49.394;8.686;2023-04-19T03:57:37;100895.03;;;10.24;90.58
60099;BME280;62818;49.394;8.686;2023-04-19T03:58:37;100894.38;;;10.22;91.13
60099;BME280;62818;49.394;8.686;2023-04-19T03:59:38;100893.00;;;10.18;91.22
60099;BME280;62818;49.394;8.686;2023-04-19T04:00:38;100886.56;;;10.20;90.81
60099;BME280;62818;49.394;8.686;2023-04-19T04:01:39;100898.16;;;10.19;91.30
60099;BME280;62818;49.394;8.686;2023-04-19T04:02:41;100890.34;;;10.18;90.75
60099;BME280;62818;49.394;8.686;2023-04-19T04:03:41;100886.91;;;10.17;91.08
60099;BME280;62818;49.394;8.686;2023-04-19T04:04:41;100900.81;;;10.19;90.70
60099;BME280;62818;49.394;8.686;2023-04-19T04:05:42;100892.50;;;10.14;90.73
60099;BME280;62818;49.394;8.686;2023-04-19T04:06:42;100894.84;;;10.17;90.88
60099;BME280;62818;49.394;8.686;2023-04-19T04:07:43;100887.69;;;10.18;90.69
60099;BME280;62818;49.394;8.686;2023-04-19T04:08:43;100892.19;;;10.17;90.47
60099;BME280;62818;49.394;8.686;2023-04-19T04:09:45;100884.09;;;10.19;90.91
60099;BME280;62818;49.394;8.686;2023-04-19T04:10:47;100901.44;;;10.13;90.65
60099;BME280;62818;49.394;8.686;2023-04-19T04:11:47;100892.50;;;10.14;90.68
60099;BME280;62818;49.394;8.686;2023-04-19T04:12:48;100895.16;;;10.14;90.71
60099;BME280;62818;49.394;8.686;2023-04-19T04:13:48;100892.81;;;10.11;90.44
60099;BME280;62818;49.394;8.686;2023-04-19T04:14:49;100899.47;;;10.15;90.39
60099;BME280;62818;49.394;8.686;2023-04-19T04:15:50;100892.50;;;10.14;90.82
60099;BME280;62818;49.394;8.686;2023-04-19T04:16:50;100895.09;;;10.06;90.78
60099;BME280;62818;49.394;8.686;2023-04-19T04:17:50;100893.13;;;10.08;90.46
60099;BME280;62818;49.394;8.686;2023-04-19T04:18:51;100896.75;;;10.07;90.66
60099;BME280;62818;49.394;8.686;2023-04-19T04:19:51;100896.75;;;10.07;90.52
60099;BME280;62818;49.394;8.686;2023-04-19T04:20:52;100897.31;;;10.11;90.58
60099;BME280;62818;49.394;8.686;2023-04-19T04:21:52;100893.13;;;10.08;90.31
60099;BME280;62818;49.394;8.686;2023-04-19T04:22:53;100898.78;;;10.13;90.14
60099;BME280;62818;49.394;8.686;2023-04-19T04:23:53;100898.63;;;10.15;89.37
60099;BME280;62818;49.394;8.686;2023-04-19T04:24:54;100895.47;;;10.11;89.66
60099;BME280;62818;49.394;8.686;2023-04-19T04:25:57;100887.03;;;10.16;89.51
60099;BME280;62818;49.394;8.686;2023-04-19T04:27:03;100898.16;;;10.19;89.01
60099;BME280;62818;49.394;8.686;2023-04-19T04:28:04;100896.84;;;10.23;88.68
60099;BME280;62818;49.394;8.686;2023-04-19T04:29:05;100897.16;;;10.20;88.90
60099;BME280;62818;49.394;8.686;2023-04-19T04:30:05;100905.75;;;10.14;89.44
60099;BME280;62818;49.394;8.686;2023-04-19T04:31:06;100899.66;;;10.22;89.46
60099;BME280;62818;49.394;8.686;2023-04-19T04:32:09;100899.63;;;10.14;89.34
60099;BME280;62818;49.394;8.686;2023-04-19T04:33:09;100902.44;;;10.12;89.61
60099;BME280;62818;49.394;8.686;2023-04-19T04:34:11;100898.41;;;10.08;90.00
60099;BME280;62818;49.394;8.686;2023-04-19T04:35:11;100904.56;;;10.09;90.08
60099;BME280;62818;49.394;8.686;2023-04-19T04:36:12;100896.56;;;10.01;90.92
60099;BME280;62818;49.394;8.686;2023-04-19T04:37:13;100900.72;;;10.03;90.65
60099;BME280;62818;49.394;8.686;2023-04-19T04:38:15;100903.19;;;10.05;90.41
60099;BME280;62818;49.394;8.686;2023-04-19T04:39:16;100887.78;;;10.00;90.69
60099;BME280;62818;49.394;8.686;2023-04-19T04:40:17;100895.41;;;10.03;91.25
60099;BME280;62818;49.394;8.686;2023-04-19T04:41:17;100891.06;;;9.94;91.00
60099;BME280;62818;49.394;8.686;2023-04-19T04:42:20;100895.88;;;9.99;91.06
60099;BME280;62818;49.394;8.686;2023-04-19T04:43:21;100898.22;;;10.02;90.62
60099;BME280;62818;49.394;8.686;2023-04-19T04:44:23;100897.69;;;9.98;90.99
60099;BME280;62818;49.394;8.686;2023-04-19T04:45:23;100894.38;;;9.96;91.41
60099;BME280;62818;49.394;8.686;2023-04-19T04:46:24;100898.84;;;9.96;91.72
60099;BME280;62818;49.394;8.686;2023-04-19T04:47:29;100890.41;;;10.00;91.70
60099;BME280;62818;49.394;8.686;2023-04-19T04:48:33;100895.53;;;9.94;91.75
60099;BME280;62818;49.394;8.686;2023-04-19T04:49:34;100891.06;;;9.94;91.86
60099;BME280;62818;49.394;8.686;2023-04-19T04:50:35;100901.16;;;9.91;92.18
60099;BME280;62818;49.394;8.686;2023-04-19T04:51:36;100894.53;;;9.87;92.03
60099;BME280;62818;49.394;8.686;2023-04-19T04:52:36;100894.81;;;9.84;92.41
60099;BME280;62818;49.394;8.686;2023-04-19T04:53:37;100899.81;;;9.87;91.94
60099;BME280;62818;49.394;8.686;2023-04-19T04:54:37;100893.34;;;9.89;92.88
60099;BME280;62818;49.394;8.686;2023-04-19T04:55:38;100897.97;;;9.87;91.95
60099;BME280;62818;49.394;8.686;2023-04-19T04:56:38;100910.94;;;9.98;91.87
60099;BME280;62818;49.394;8.686;2023-04-19T04:57:39;100901.78;;;9.85;92.50
60099;BME280;62818;49.394;8.686;2023-04-19T04:58:39;100891.03;;;9.86;92.95
60099;BME280;62818;49.394;8.686;2023-04-19T04:59:39;100900.78;;;9.86;92.49
60099;BME280;62818;49.394;8.686;2023-04-19T05:00:40;100900.81;;;9.94;92.12
60099;BME280;62818;49.394;8.686;2023-04-19T05:01:40;100904.94;;;9.88;92.94
60099;BME280;62818;49.394;8.686;2023-04-19T05:02:41;100909.25;;;9.89;92.87
60099;BME280;62818;49.394;8.686;2023-04-19T05:03:42;100900.28;;;9.82;93.43
60099;BME280;62818;49.394;8.686;2023-04-19T05:04:42;100900.44;;;9.81;93.13
60099;BME280;62818;49.394;8.686;2023-04-19T05:05:42;100899.63;;;9.80;93.44
60099;BME280;62818;49.394;8.686;2023-04-19T05:06:43;100897.00;;;9.88;93.06
60099;BME280;62818;49.394;8.686;2023-04-19T05:07:44;100910.88;;;9.82;93.81
60099;BME280;62818;49.394;8.686;2023-04-19T05:08:44;100910.50;;;9.77;94.15
60099;BME280;62818;49.394;8.686;2023-04-19T05:09:45;100906.56;;;9.81;94.00
60099;BME280;62818;49.394;8.686;2023-04-19T05:10:45;100907.91;;;9.85;94.18
60099;BME280;62818;49.394;8.686;2023-04-19T05:11:46;100913.66;;;9.81;94.13
60099;BME280;62818;49.394;8.686;2023-04-19T05:12:47;100906.94;;;9.94;93.98
60099;BME280;62818;49.394;8.686;2023-04-19T05:13:47;100906.06;;;9.78;94.24
60099;BME280;62818;49.394;8.686;2023-04-19T05:14:47;100908.53;;;9.79;94.49
60099;BME280;62818;49.394;8.686;2023-04-19T05:15:48;100911.84;;;9.81;94.40
60099;BME280;62818;49.394;8.686;2023-04-19T05:16:48;100905.44;;;9.92;94.11
60099;BME280;62818;49.394;8.686;2023-04-19T05:17:49;100914.53;;;9.89;93.48